sensor_id;sensor_type;location;lat;lon;timestamp;pressure;altitude;pressure_sealevel;temperature;humidity
13581;BME280;6861;46.170;7.222;2023-04-22T00:00:45;95617.06;;;12.01;50.63
13581;BME280;6861;46.170;7.222;2023-04-22T00:03:13;95619.03;;;12.09;50.33
13581;BME280;6861;46.170;7.222;2023-04-22T00:05:42;95631.00;;;12.15;50.18
13581;BME280;6861;46.170;7.222;2023-04-22T00:08:10;95622.06;;;12.16;49.91
13581;BME280;6861;46.170;7.222;2023-04-22T00:10:38;95620.03;;;12.13;50.02
13581;BME280;6861;46.170;7.222;2023-04-22T00:13:08;95627.41;;;12.11;50.31
13581;BME280;6861;46.170;7.222;2023-04-22T00:15:36;95616.56;;;11.99;51.12
13581;BME280;6861;46.170;7.222;2023-04-22T00:18:04;95616.69;;;11.89;50.82
13581;BME280;6861;46.170;7.222;2023-04-22T00:20:40;95614.66;;;11.80;51.07
13581;BME280;6861;46.170;7.222;2023-04-22T00:23:08;95621.78;;;11.75;51.95
13581;BME280;6861;46.170;7.222;2023-04-22T00:25:37;95621.56;;;11.71;51.96
13581;BME280;6861;46.170;7.222;2023-04-22T00:28:06;95614.75;;;11.70;51.34
13581;BME280;6861;46.170;7.222;2023-04-22T00:30:35;95620.00;;;11.70;51.66
13581;BME280;6861;46.170;7.222;2023-04-22T00:33:04;95612.63;;;11.72;52.08
13581;BME280;6861;46.170;7.222;2023-04-22T00:35:32;95611.63;;;11.68;52.03
13581;BME280;6861;46.170;7.222;2023-04-22T00:38:00;95618.44;;;11.69;51.25
13581;BME280;6861;46.170;7.222;2023-04-22T00:40:28;95620.34;;;11.64;52.32
13581;BME280;6861;46.170;7.222;2023-04-22T00:42:57;95618.50;;;11.64;52.22
13581;BME280;6861;46.170;7.222;2023-04-22T00:45:26;95610.63;;;11.64;51.92
13581;BME280;6861;46.170;7.222;2023-04-22T00:47:56;95614.31;;;11.63;52.47
13581;BME280;6861;46.170;7.222;2023-04-22T00:50:24;95614.88;;;11.60;51.59
13581;BME280;6861;46.170;7.222;2023-04-22T00:52:52;95606.78;;;11.57;51.69
13581;BME280;6861;46.170;7.222;2023-04-22T00:55:21;95618.09;;;11.52;52.46
13581;BME280;6861;46.170;7.222;2023-04-22T00:57:49;95611.31;;;11.51;52.19
13581;BME280;6861;46.170;7.222;2023-04-22T01:00:18;95616.53;;;11.51;51.80
13581;BME280;6861;46.170;7.222;2023-04-22T01:02:52;95609.75;;;11.50;51.83
13581;BME280;6861;46.170;7.222;2023-04-22T01:05:24;95609.28;;;11.43;52.93
13581;BME280;6861;46.170;7.222;2023-04-22T01:07:52;95607.28;;;11.35;52.67
13581;BME280;6861;46.170;7.222;2023-04-22T01:10:20;95611.09;;;11.24;52.89
13581;BME280;6861;46.170;7.222;2023-04-22T01:12:48;95606.72;;;11.14;53.39
13581;BME280;6861;46.170;7.222;2023-04-22T01:15:17;95597.13;;;11.04;53.74
13581;BME280;6861;46.170;7.222;2023-04-22T01:17:45;95606.03;;;11.03;54.27
13581;BME280;6861;46.170;7.222;2023-04-22T01:20:14;95607.38;;;11.01;54.35
13581;BME280;6861;46.170;7.222;2023-04-22T01:22:44;95607.63;;;10.99;54.13
13581;BME280;6861;46.170;7.222;2023-04-22T01:25:14;95615.50;;;10.99;53.95
13581;BME280;6861;46.170;7.222;2023-04-22T01:27:43;95606.34;;;10.97;54.46
13581;BME280;6861;46.170;7.222;2023-04-22T01:30:11;95604.56;;;10.92;54.63
13581;BME280;6861;46.170;7.222;2023-04-22T01:32:39;95612.47;;;10.87;54.92
13581;BME280;6861;46.170;7.222;2023-04-22T01:35:08;95602.53;;;10.84;54.85
13581;BME280;6861;46.170;7.222;2023-04-22T01:37:37;95608.31;;;10.81;54.58
13581;BME280;6861;46.170;7.222;2023-04-22T01:40:08;95607.28;;;10.77;54.89
13581;BME280;6861;46.170;7.222;2023-04-22T01:42:38;95598.94;;;10.75;55.34
13581;BME280;6861;46.170;7.222;2023-04-22T01:45:07;95599.50;;;10.72;55.03
13581;BME280;6861;46.170;7.222;2023-04-22T01:47:35;95609.97;;;10.72;54.97
13581;BME280;6861;46.170;7.222;2023-04-22T01:50:04;95602.41;;;10.65;55.67
13581;BME280;6861;46.170;7.222;2023-04-22T01:52:32;95602.13;;;10.67;55.21
13581;BME280;6861;46.170;7.222;2023-04-22T01:55:01;95602.69;;;10.64;55.42
13581;BME280;6861;46.170;7.222;2023-04-22T01:57:29;95605.56;;;10.62;55.50
13581;BME280;6861;46.170;7.222;2023-04-22T01:59:58;95603.78;;;10.58;55.77
13581;BME280;6861;46.170;7.222;2023-04-22T02:02:27;95606.94;;;10.55;55.87
13581;BME280;6861;46.170;7.222;2023-04-22T02:04:55;95606.97;;;10.49;56.08
13581;BME280;6861;46.170;7.222;2023-04-22T02:07:23;95609.63;;;10.44;56.18
13581;BME280;6861;46.170;7.222;2023-04-22T02:09:51;95596.03;;;10.42;56.25
13581;BME280;6861;46.170;7.222;2023-04-22T02:12:19;95601.53;;;10.41;56.23
13581;BME280;6861;46.170;7.222;2023-04-22T02:14:47;95593.50;;;10.37;56.40
13581;BME280;6861;46.170;7.222;2023-04-22T02:17:17;95602.94;;;10.33;56.42
13581;BME280;6861;46.170;7.222;2023-04-22T02:19:45;95597.19;;;10.31;56.38
13581;BME280;6861;46.170;7.222;2023-04-22T02:22:13;95593.81;;;10.26;56.70
13581;BME280;6861;46.170;7.222;2023-04-22T02:24:41;95602.97;;;10.23;56.70
13581;BME280;6861;46.170;7.222;2023-04-22T02:27:09;95608.75;;;10.20;56.90
13581;BME280;6861;46.170;7.222;2023-04-22T02:29:38;95615.53;;;10.21;56.86
13581;BME280;6861;46.170;7.222;2023-04-22T02:32:07;95612.38;;;10.19;56.84
13581;BME280;6861;46.170;7.222;2023-04-22T02:34:37;95620.75;;;10.26;56.43
13581;BME280;6861;46.170;7.222;2023-04-22T02:37:05;95624.38;;;10.30;56.34
13581;BME280;6861;46.170;7.222;2023-04-22T02:39:33;95619.13;;;10.35;56.24
13581;BME280;6861;46.170;7.222;2023-04-22T02:42:02;95624.88;;;10.37;56.14
13581;BME280;6861;46.170;7.222;2023-04-22T02:44:30;95619.84;;;10.41;55.77
13581;BME280;6861;46.170;7.222;2023-04-22T02:46:58;95615.97;;;10.38;55.75
13581;BME280;6861;46.170;7.222;2023-04-22T02:49:26;95612.84;;;10.36;55.86
13581;BME280;6861;46.170;7.222;2023-04-22T02:51:56;95614.72;;;10.31;56.06
13581;BME280;6861;46.170;7.222;2023-04-22T02:54:25;95615.00;;;10.24;56.25
13581;BME280;6861;46.170;7.222;2023-04-22T02:56:53;95624.44;;;10.20;56.50
13581;BME280;6861;46.170;7.222;2023-04-22T02:59:21;95623.38;;;10.16;56.81
13581;BME280;6861;46.170;7.222;2023-04-22T03:01:49;95604.59;;;10.09;56.67
13581;BME280;6861;46.170;7.222;2023-04-22T03:04:17;95610.34;;;10.11;56.87
13581;BME280;6861;46.170;7.222;2023-04-22T03:06:47;95612.97;;;10.11;56.73
13581;BME280;6861;46.170;7.222;2023-04-22T03:09:17;95608.25;;;10.13;56.81
13581;BME280;6861;46.170;7.222;2023-04-22T03:11:45;95613.47;;;10.13;56.61
13581;BME280;6861;46.170;7.222;2023-04-22T03:14:13;95608.00;;;10.09;56.73
13581;BME280;6861;46.170;7.222;2023-04-22T03:16:41;95597.31;;;10.06;56.91
13581;BME280;6861;46.170;7.222;2023-04-22T03:19:09;95604.88;;;10.07;56.40
13581;BME280;6861;46.170;7.222;2023-04-22T03:21:37;95614.53;;;10.07;56.85
13581;BME280;6861;46.170;7.222;2023-04-22T03:24:05;95615.56;;;10.11;56.55
13581;BME280;6861;46.170;7.222;2023-04-22T03:26:35;95613.97;;;10.15;56.23
13581;BME280;6861;46.170;7.222;2023-04-22T03:29:03;95602.47;;;10.21;56.41
13581;BME280;6861;46.170;7.222;2023-04-22T03:31:31;95605.59;;;10.23;55.83
13581;BME280;6861;46.170;7.222;2023-04-22T03:33:59;95608.69;;;10.30;56.24
13581;BME280;6861;46.170;7.222;2023-04-22T03:36:28;95606.06;;;10.35;55.99
13581;BME280;6861;46.170;7.222;2023-04-22T03:38:56;95600.28;;;10.38;55.88
13581;BME280;6861;46.170;7.222;2023-04-22T03:41:24;95604.38;;;10.44;55.45
13581;BME280;6861;46.170;7.222;2023-04-22T03:43:54;95607.53;;;10.46;55.33
13581;BME280;6861;46.170;7.222;2023-04-22T03:46:25;95607.00;;;10.44;55.21
13581;BME280;6861;46.170;7.222;2023-04-22T03:48:53;95605.50;;;10.38;55.56
13581;BME280;6861;46.170;7.222;2023-04-22T03:51:21;95612.91;;;10.26;56.11
13581;BME280;6861;46.170;7.222;2023-04-22T03:53:49;95609.81;;;10.14;56.07
13581;BME280;6861;46.170;7.222;2023-04-22T03:56:17;95616.09;;;10.08;56.40
13581;BME280;6861;46.170;7.222;2023-04-22T03:58:46;95624.75;;;10.03;56.54
13581;BME280;6861;46.170;7.222;2023-04-22T04:01:15;95624.50;;;10.00;56.83
13581;BME280;6861;46.170;7.222;2023-04-22T04:03:43;95620.09;;;9.95;56.80
13581;BME280;6861;46.170;7.222;2023-04-22T04:06:12;95621.13;;;9.94;56.85
13581;BME280;6861;46.170;7.222;2023-04-22T04:08:40;95618.78;;;9.98;56.84
13581;BME280;6861;46.170;7.222;2023-04-22T04:11:08;95617.22;;;9.97;56.84
13581;BME280;6861;46.170;7.222;2023-04-22T04:13:36;95609.38;;;9.97;56.72
13581;BME280;6861;46.170;7.222;2023-04-22T04:16:05;95611.97;;;9.97;56.89
13581;BME280;6861;46.170;7.222;2023-04-22T04:18:34;95616.66;;;10.05;56.58
13581;BME280;6861;46.170;7.222;2023-04-22T04:21:03;95614.00;;;10.10;56.39
13581;BME280;6861;46.170;7.222;2023-04-22T04:23:31;95615.03;;;10.14;56.13
13581;BME280;6861;46.170;7.222;2023-04-22T04:25:59;95602.75;;;10.14;56.66
13581;BME280;6861;46.170;7.222;2023-04-22T04:28:28;95597.25;;;10.16;56.31
13581;BME280;6861;46.170;7.222;2023-04-22T04:30:58;95600.91;;;10.15;56.52
13581;BME280;6861;46.170;7.222;2023-04-22T04:33:26;95596.75;;;10.09;56.72
13581;BME280;6861;46.170;7.222;2023-04-22T04:35:55;95608.03;;;10.04;56.79
13581;BME280;6861;46.170;7.222;2023-04-22T04:38:24;95605.16;;;10.01;57.06
13581;BME280;6861;46.170;7.222;2023-04-22T04:40:52;95605.16;;;10.01;56.99
13581;BME280;6861;46.170;7.222;2023-04-22T04:43:20;95604.63;;;10.04;56.83
13581;BME280;6861;46.170;7.222;2023-04-22T04:45:51;95615.09;;;10.04;56.61
13581;BME280;6861;46.170;7.222;2023-04-22T04:48:20;95611.97;;;10.02;57.10
13581;BME280;6861;46.170;7.222;2023-04-22T04:50:51;95609.63;;;10.00;57.09
13581;BME280;6861;46.170;7.222;2023-04-22T04:53:21;95611.16;;;10.01;57.04
13581;BME280;6861;46.170;7.222;2023-04-22T04:55:49;95602.81;;;9.99;57.11
13581;BME280;6861;46.170;7.222;2023-04-22T04:58:17;95605.47;;;9.94;57.18
13581;BME280;6861;46.170;7.222;2023-04-22T05:00:46;95611.44;;;10.00;57.02
13581;BME280;6861;46.170;7.222;2023-04-22T05:03:14;95619.78;;;10.02;56.98
13581;BME280;6861;46.170;7.222;2023-04-22T05:05:42;95621.88;;;10.05;56.89
13581;BME280;6861;46.170;7.222;2023-04-22T05:08:11;95629.19;;;10.08;56.83
13581;BME280;6861;46.170;7.222;2023-04-22T05:10:41;95624.72;;;10.08;56.98
13581;BME280;6861;46.170;7.222;2023-04-22T05:13:10;95626.81;;;10.11;56.78
13581;BME280;6861;46.170;7.222;2023-04-22T05:15:38;95626.50;;;10.18;56.84
13581;BME280;6861;46.170;7.222;2023-04-22T05:18:07;95637.50;;;10.25;56.62
13581;BME280;6861;46.170;7.222;2023-04-22T05:20:35;95645.03;;;10.32;56.14
13581;BME280;6861;46.170;7.222;2023-04-22T05:23:03;95641.78;;;10.45;56.17
13581;BME280;6861;46.170;7.222;2023-04-22T05:25:32;95649.53;;;10.60;56.31
13581;BME280;6861;46.170;7.222;2023-04-22T05:28:01;95635.06;;;10.73;56.10
13581;BME280;6861;46.170;7.222;2023-04-22T05:30:30;95644.59;;;10.93;55.70
13581;BME280;6861;46.170;7.222;2023-04-22T05:32:58;95644.72;;;11.11;55.36
13581;BME280;6861;46.170;7.222;2023-04-22T05:35:26;95647.16;;;11.27;55.33
13581;BME280;6861;46.170;7.222;2023-04-22T05:37:54;95659.34;;;11.41;54.38
13581;BME280;6861;46.170;7.222;2023-04-22T05:40:22;95655.56;;;11.53;54.81
13581;BME280;6861;46.170;7.222;2023-04-22T05:42:51;95666.22;;;11.61;54.53
13581;BME280;6861;46.170;7.222;2023-04-22T05:45:21;95668.97;;;11.75;53.67
13581;BME280;6861;46.170;7.222;2023-04-22T05:47:49;95676.69;;;11.90;53.64
13581;BME280;6861;46.170;7.222;2023-04-22T05:50:17;95681.53;;;12.02;53.42
13581;BME280;6861;46.170;7.222;2023-04-22T05:52:48;95683.56;;;12.10;53.25
13581;BME280;6861;46.170;7.222;2023-04-22T05:55:17;95705.44;;;12.19;52.68
13581;BME280;6861;46.170;7.222;2023-04-22T05:57:45;95718.63;;;12.14;52.44
13581;BME280;6861;46.170;7.222;2023-04-22T06:00:14;95724.44;;;12.11;52.65
13581;BME280;6861;46.170;7.222;2023-04-22T06:02:44;95726.34;;;12.05;52.96
13581;BME280;6861;46.170;7.222;2023-04-22T06:05:13;95718.31;;;11.97;52.89
13581;BME280;6861;46.170;7.222;2023-04-22T06:07:41;95693.72;;;11.93;53.08
13581;BME280;6861;46.170;7.222;2023-04-22T06:10:09;95671.72;;;11.89;53.65
13581;BME280;6861;46.170;7.222;2023-04-22T06:12:37;95657.19;;;11.72;54.03
13581;BME280;6861;46.170;7.222;2023-04-22T06:15:09;95662.59;;;11.57;53.57
13581;BME280;6861;46.170;7.222;2023-04-22T06:17:40;95655.94;;;11.41;53.63
13581;BME280;6861;46.170;7.222;2023-04-22T06:20:12;95675.28;;;11.45;53.81
13581;BME280;6861;46.170;7.222;2023-04-22T06:22:43;95686.97;;;11.58;53.96
13581;BME280;6861;46.170;7.222;2023-04-22T06:25:12;95695.50;;;11.68;54.43
13581;BME280;6861;46.170;7.222;2023-04-22T06:27:40;95699.13;;;11.72;53.97
13581;BME280;6861;46.170;7.222;2023-04-22T06:30:09;95706.38;;;11.86;53.15
13581;BME280;6861;46.170;7.222;2023-04-22T06:32:38;95705.59;;;12.09;53.56
13581;BME280;6861;46.170;7.222;2023-04-22T06:35:07;95705.81;;;12.31;53.10
13581;BME280;6861;46.170;7.222;2023-04-22T06:37:37;95702.38;;;12.55;52.25
13581;BME280;6861;46.170;7.222;2023-04-22T06:40:06;95695.56;;;12.72;52.07
13581;BME280;6861;46.170;7.222;2023-04-22T06:42:34;95699.53;;;12.89;51.95
13581;BME280;6861;46.170;7.222;2023-04-22T06:45:03;95697.56;;;12.99;51.61
13581;BME280;6861;46.170;7.222;2023-04-22T06:47:31;95704.63;;;13.18;51.53
13581;BME280;6861;46.170;7.222;2023-04-22T06:50:00;95707.78;;;13.33;51.08
13581;BME280;6861;46.170;7.222;2023-04-22T06:52:30;95698.28;;;13.37;51.33
13581;BME280;6861;46.170;7.222;2023-04-22T06:55:02;95693.22;;;13.41;50.68
13581;BME280;6861;46.170;7.222;2023-04-22T06:57:30;95691.47;;;13.50;50.60
13581;BME280;6861;46.170;7.222;2023-04-22T06:59:59;95690.31;;;13.56;50.67
13581;BME280;6861;46.170;7.222;2023-04-22T07:02:27;95699.09;;;13.65;49.99
13581;BME280;6861;46.170;7.222;2023-04-22T07:04:55;95697.97;;;13.85;49.84
13581;BME280;6861;46.170;7.222;2023-04-22T07:07:24;95700.00;;;14.02;49.22
13581;BME280;6861;46.170;7.222;2023-04-22T07:09:52;95698.13;;;14.16;49.45
13581;BME280;6861;46.170;7.222;2023-04-22T07:12:22;95691.50;;;14.32;48.78
13581;BME280;6861;46.170;7.222;2023-04-22T07:14:51;95688.97;;;14.55;48.55
13581;BME280;6861;46.170;7.222;2023-04-22T07:17:19;95681.66;;;14.74;48.18
13581;BME280;6861;46.170;7.222;2023-04-22T07:19:48;95685.03;;;14.88;47.95
13581;BME280;6861;46.170;7.222;2023-04-22T07:22:16;95676.34;;;14.88;47.82
13581;BME280;6861;46.170;7.222;2023-04-22T07:24:44;95670.66;;;14.94;47.71
13581;BME280;6861;46.170;7.222;2023-04-22T07:27:13;95677.09;;;15.02;47.78
13581;BME280;6861;46.170;7.222;2023-04-22T07:29:42;95674.16;;;15.26;47.40
13581;BME280;6861;46.170;7.222;2023-04-22T07:32:10;95674.81;;;16.02;46.44
13581;BME280;6861;46.170;7.222;2023-04-22T07:34:39;95670.84;;;17.43;45.19
13581;BME280;6861;46.170;7.222;2023-04-22T07:37:07;95677.59;;;17.87;43.95
13581;BME280;6861;46.170;7.222;2023-04-22T07:39:35;95673.38;;;17.86;43.55
13581;BME280;6861;46.170;7.222;2023-04-22T07:42:04;95670.63;;;17.74;43.60
13581;BME280;6861;46.170;7.222;2023-04-22T07:44:33;95678.41;;;17.61;43.13
13581;BME280;6861;46.170;7.222;2023-04-22T07:47:06;95679.38;;;17.48;43.14
13581;BME280;6861;46.170;7.222;2023-04-22T07:49:35;95688.03;;;17.19;42.87
13581;BME280;6861;46.170;7.222;2023-04-22T07:52:03;95684.91;;;16.65;43.33
13581;BME280;6861;46.170;7.222;2023-04-22T07:54:32;95688.53;;;16.21;44.23
13581;BME280;6861;46.170;7.222;2023-04-22T07:57:00;95688.88;;;15.80;44.56
13581;BME280;6861;46.170;7.222;2023-04-22T07:59:28;95696.16;;;15.52;45.40
13581;BME280;6861;46.170;7.222;2023-04-22T08:01:57;95700.84;;;15.33;45.75
13581;BME280;6861;46.170;7.222;2023-04-22T08:04:27;95693.72;;;15.11;45.80
13581;BME280;6861;46.170;7.222;2023-04-22T08:06:55;95675.94;;;14.94;46.13
13581;BME280;6861;46.170;7.222;2023-04-22T08:09:23;95668.75;;;14.86;45.97
13581;BME280;6861;46.170;7.222;2023-04-22T08:11:52;95657.25;;;14.82;46.62
13581;BME280;6861;46.170;7.222;2023-04-22T08:14:20;95663.66;;;14.90;46.26
13581;BME280;6861;46.170;7.222;2023-04-22T08:16:50;95660.50;;;15.01;46.43
13581;BME280;6861;46.170;7.222;2023-04-22T08:19:19;95663.59;;;15.26;46.04
13581;BME280;6861;46.170;7.222;2023-04-22T08:21:48;95645.50;;;15.33;45.88
13581;BME280;6861;46.170;7.222;2023-04-22T08:24:17;95629.69;;;15.33;45.75
13581;BME280;6861;46.170;7.222;2023-04-22T08:26:45;95632.19;;;15.38;46.32
13581;BME280;6861;46.170;7.222;2023-04-22T08:29:13;95630.38;;;15.47;45.30
13581;BME280;6861;46.170;7.222;2023-04-22T08:31:42;95636.19;;;15.66;45.67
13581;BME280;6861;46.170;7.222;2023-04-22T08:34:10;95633.94;;;15.82;45.66
13581;BME280;6861;46.170;7.222;2023-04-22T08:36:39;95636.00;;;15.94;45.40
13581;BME280;6861;46.170;7.222;2023-04-22T08:39:09;95634.91;;;15.95;46.06
13581;BME280;6861;46.170;7.222;2023-04-22T08:41:38;95638.63;;;15.94;45.81
13581;BME280;6861;46.170;7.222;2023-04-22T08:44:06;95641.28;;;15.94;46.03
13581;BME280;6861;46.170;7.222;2023-04-22T08:46:35;95624.97;;;15.92;46.62
13581;BME280;6861;46.170;7.222;2023-04-22T08:49:04;95626.22;;;16.03;46.17
13581;BME280;6861;46.170;7.222;2023-04-22T08:51:33;95630.78;;;16.20;45.79
13581;BME280;6861;46.170;7.222;2023-04-22T08:54:01;95638.25;;;16.35;45.43
13581;BME280;6861;46.170;7.222;2023-04-22T08:56:31;95649.31;;;16.46;45.16
13581;BME280;6861;46.170;7.222;2023-04-22T08:58:59;95641.38;;;16.46;45.31
13581;BME280;6861;46.170;7.222;2023-04-22T09:01:29;95636.88;;;16.46;45.41
13581;BME280;6861;46.170;7.222;2023-04-22T09:03:58;95638.75;;;16.46;45.78
13581;BME280;6861;46.170;7.222;2023-04-22T09:06:29;95630.97;;;16.41;45.45
13581;BME280;6861;46.170;7.222;2023-04-22T09:08:59;95623.19;;;16.35;45.64
13581;BME280;6861;46.170;7.222;2023-04-22T09:11:28;95619.59;;;16.23;45.52
13581;BME280;6861;46.170;7.222;2023-04-22T09:13:58;95618.19;;;16.08;45.56
13581;BME280;6861;46.170;7.222;2023-04-22T09:16:28;95627.94;;;15.99;46.06
13581;BME280;6861;46.170;7.222;2023-04-22T09:18:57;95623.88;;;15.93;46.38
13581;BME280;6861;46.170;7.222;2023-04-22T09:21:26;95620.28;;;15.89;46.31
13581;BME280;6861;46.170;7.222;2023-04-22T09:23:55;95623.06;;;15.84;46.60
13581;BME280;6861;46.170;7.222;2023-04-22T09:26:25;95616.84;;;15.80;46.04
13581;BME280;6861;46.170;7.222;2023-04-22T09:28:54;95615.28;;;15.79;46.40
13581;BME280;6861;46.170;7.222;2023-04-22T09:31:26;95606.88;;;15.68;46.14
13581;BME280;6861;46.170;7.222;2023-04-22T09:33:56;95614.31;;;15.57;46.27
13581;BME280;6861;46.170;7.222;2023-04-22T09:36:27;95615.66;;;15.55;46.44
13581;BME280;6861;46.170;7.222;2023-04-22T09:38:56;95621.25;;;15.53;46.24
13581;BME280;6861;46.170;7.222;2023-04-22T09:41:26;95610.22;;;15.51;46.20
13581;BME280;6861;46.170;7.222;2023-04-22T09:43:55;95617.03;;;15.44;45.87
13581;BME280;6861;46.170;7.222;2023-04-22T09:46:26;95620.59;;;15.48;46.41
13581;BME280;6861;46.170;7.222;2023-04-22T09:48:55;95628.56;;;15.56;46.30
13581;BME280;6861;46.170;7.222;2023-04-22T09:51:24;95640.56;;;15.71;46.05
13581;BME280;6861;46.170;7.222;2023-04-22T09:53:58;95636.25;;;15.84;45.71
13581;BME280;6861;46.170;7.222;2023-04-22T09:56:43;95637.06;;;15.93;46.04
13581;BME280;6861;46.170;7.222;2023-04-22T09:59:12;95618.00;;;15.96;45.63
13581;BME280;6861;46.170;7.222;2023-04-22T10:01:42;95622.50;;;16.04;45.40
13581;BME280;6861;46.170;7.222;2023-04-22T10:04:10;95623.28;;;16.04;45.70
13581;BME280;6861;46.170;7.222;2023-04-22T10:06:41;95619.72;;;16.09;45.99
13581;BME280;6861;46.170;7.222;2023-04-22T10:09:09;95623.31;;;16.22;46.67
13581;BME280;6861;46.170;7.222;2023-04-22T10:11:38;95624.13;;;16.31;46.57
13581;BME280;6861;46.170;7.222;2023-04-22T10:14:07;95621.19;;;16.41;47.18
13581;BME280;6861;46.170;7.222;2023-04-22T10:16:42;95618.50;;;16.50;46.50
13581;BME280;6861;46.170;7.222;2023-04-22T10:19:15;95610.13;;;16.48;46.73
13581;BME280;6861;46.170;7.222;2023-04-22T10:21:45;95602.06;;;16.35;46.34
13581;BME280;6861;46.170;7.222;2023-04-22T10:24:16;95593.69;;;16.33;46.13
13581;BME280;6861;46.170;7.222;2023-04-22T10:26:48;95593.38;;;16.26;46.71
13581;BME280;6861;46.170;7.222;2023-04-22T10:29:19;95580.16;;;16.18;47.05
13581;BME280;6861;46.170;7.222;2023-04-22T10:31:54;95583.09;;;16.16;46.42
13581;BME280;6861;46.170;7.222;2023-04-22T10:34:24;95599.44;;;16.35;46.15
13581;BME280;6861;46.170;7.222;2023-04-22T10:36:58;95600.97;;;16.54;45.74
13581;BME280;6861;46.170;7.222;2023-04-22T10:39:27;95598.97;;;16.68;45.10
13581;BME280;6861;46.170;7.222;2023-04-22T10:42:04;95595.06;;;16.83;45.44
13581;BME280;6861;46.170;7.222;2023-04-22T10:44:46;95599.88;;;16.89;44.66
13581;BME280;6861;46.170;7.222;2023-04-22T10:47:27;95586.00;;;17.10;44.05
13581;BME280;6861;46.170;7.222;2023-04-22T10:50:08;95584.59;;;17.21;43.81
13581;BME280;6861;46.170;7.222;2023-04-22T10:52:38;95585.38;;;17.21;43.69
13581;BME280;6861;46.170;7.222;2023-04-22T10:55:07;95587.84;;;17.18;42.96
13581;BME280;6861;46.170;7.222;2023-04-22T10:57:37;95588.03;;;17.13;43.20
13581;BME280;6861;46.170;7.222;2023-04-22T11:00:38;95584.94;;;17.02;42.85
13581;BME280;6861;46.170;7.222;2023-04-22T11:03:26;95592.28;;;16.88;43.50
13581;BME280;6861;46.170;7.222;2023-04-22T11:06:14;95588.72;;;16.75;43.72
13581;BME280;6861;46.170;7.222;2023-04-22T11:08:44;95582.16;;;16.64;43.74
13581;BME280;6861;46.170;7.222;2023-04-22T11:11:15;95584.03;;;16.55;43.48
13581;BME280;6861;46.170;7.222;2023-04-22T11:13:46;95572.06;;;16.49;43.43
13581;BME280;6861;46.170;7.222;2023-04-22T11:16:16;95578.75;;;16.55;43.15
13581;BME280;6861;46.170;7.222;2023-04-22T11:18:51;95570.03;;;16.63;42.89
13581;BME280;6861;46.170;7.222;2023-04-22T11:21:19;95570.06;;;16.80;43.25
13581;BME280;6861;46.170;7.222;2023-04-22T11:23:49;95572.97;;;17.04;42.82
13581;BME280;6861;46.170;7.222;2023-04-22T11:26:17;95577.25;;;17.26;42.82
13581;BME280;6861;46.170;7.222;2023-04-22T11:28:46;95566.59;;;17.44;42.21
13581;BME280;6861;46.170;7.222;2023-04-22T11:31:15;95566.53;;;17.61;41.97
13581;BME280;6861;46.170;7.222;2023-04-22T11:33:43;95574.72;;;17.77;42.76
13581;BME280;6861;46.170;7.222;2023-04-22T11:36:17;95578.88;;;17.86;42.45
13581;BME280;6861;46.170;7.222;2023-04-22T11:38:53;95566.22;;;17.92;42.68
13581;BME280;6861;46.170;7.222;2023-04-22T11:41:22;95565.22;;;18.05;43.22
13581;BME280;6861;46.170;7.222;2023-04-22T11:43:50;95555.53;;;18.09;42.99
13581;BME280;6861;46.170;7.222;2023-04-22T11:46:27;95558.22;;;18.21;42.27
13581;BME280;6861;46.170;7.222;2023-04-22T11:49:10;95560.56;;;18.44;42.79
13581;BME280;6861;46.170;7.222;2023-04-22T11:51:52;95556.03;;;18.65;42.32
13581;BME280;6861;46.170;7.222;2023-04-22T11:54:31;95559.09;;;18.88;41.52
13581;BME280;6861;46.170;7.222;2023-04-22T11:57:01;95552.28;;;19.11;41.24
13581;BME280;6861;46.170;7.222;2023-04-22T11:59:30;95557.06;;;19.30;40.86
13581;BME280;6861;46.170;7.222;2023-04-22T12:01:58;95552.13;;;19.41;40.44
13581;BME280;6861;46.170;7.222;2023-04-22T12:04:27;95546.25;;;19.35;39.93
13581;BME280;6861;46.170;7.222;2023-04-22T12:06:56;95539.84;;;19.36;39.59
13581;BME280;6861;46.170;7.222;2023-04-22T12:09:26;95537.63;;;19.38;39.61
13581;BME280;6861;46.170;7.222;2023-04-22T12:11:55;95529.66;;;19.38;39.66
13581;BME280;6861;46.170;7.222;2023-04-22T12:14:27;95537.53;;;19.47;39.65
13581;BME280;6861;46.170;7.222;2023-04-22T12:16:58;95545.16;;;19.48;39.84
13581;BME280;6861;46.170;7.222;2023-04-22T12:19:30;95544.59;;;19.30;40.33
13581;BME280;6861;46.170;7.222;2023-04-22T12:22:00;95553.72;;;19.09;40.98
13581;BME280;6861;46.170;7.222;2023-04-22T12:24:29;95554.22;;;18.78;41.27
13581;BME280;6861;46.170;7.222;2023-04-22T12:26:57;95549.88;;;18.73;41.78
13581;BME280;6861;46.170;7.222;2023-04-22T12:29:29;95540.59;;;18.67;41.69
13581;BME280;6861;46.170;7.222;2023-04-22T12:31:58;95549.88;;;18.73;42.49
13581;BME280;6861;46.170;7.222;2023-04-22T12:34:26;95551.00;;;18.72;42.23
13581;BME280;6861;46.170;7.222;2023-04-22T12:36:55;95559.13;;;18.67;42.05
13581;BME280;6861;46.170;7.222;2023-04-22T12:39:25;95554.22;;;18.57;42.83
13581;BME280;6861;46.170;7.222;2023-04-22T12:41:53;95555.72;;;18.46;42.49
13581;BME280;6861;46.170;7.222;2023-04-22T12:44:23;95556.88;;;18.36;42.08
13581;BME280;6861;46.170;7.222;2023-04-22T12:46:51;95546.47;;;18.31;42.52
13581;BME280;6861;46.170;7.222;2023-04-22T12:49:20;95556.28;;;18.30;42.56
13581;BME280;6861;46.170;7.222;2023-04-22T12:51:48;95554.88;;;18.33;42.27
13581;BME280;6861;46.170;7.222;2023-04-22T12:54:17;95563.28;;;18.35;42.56
13581;BME280;6861;46.170;7.222;2023-04-22T12:56:47;95558.75;;;18.35;42.20
13581;BME280;6861;46.170;7.222;2023-04-22T12:59:15;95559.41;;;18.32;42.71
13581;BME280;6861;46.170;7.222;2023-04-22T13:01:44;95554.22;;;18.36;42.83
13581;BME280;6861;46.170;7.222;2023-04-22T13:04:12;95550.41;;;18.25;42.92
13581;BME280;6861;46.170;7.222;2023-04-22T13:06:41;95539.91;;;18.16;43.06
13581;BME280;6861;46.170;7.222;2023-04-22T13:09:10;95537.03;;;18.21;42.84
13581;BME280;6861;46.170;7.222;2023-04-22T13:11:38;95527.69;;;18.24;43.22
13581;BME280;6861;46.170;7.222;2023-04-22T13:14:09;95528.97;;;18.39;42.93
13581;BME280;6861;46.170;7.222;2023-04-22T13:16:37;95511.03;;;18.56;43.04
13581;BME280;6861;46.170;7.222;2023-04-22T13:19:05;95496.25;;;18.88;42.60
13581;BME280;6861;46.170;7.222;2023-04-22T13:21:34;95512.84;;;19.22;42.29
13581;BME280;6861;46.170;7.222;2023-04-22T13:24:02;95511.44;;;19.49;41.61